createdAt,value
2022-09-07T00:01:20.576Z,11.40
2022-09-07T00:06:42.828Z,11.10
2022-09-07T00:12:05.238Z,10.70
2022-09-07T00:17:27.544Z,10.70
2022-09-07T00:22:49.760Z,10.70
2022-09-07T00:28:12.076Z,10.50
2022-09-07T00:33:34.280Z,10.50
2022-09-07T00:38:56.904Z,10.50
2022-09-07T00:44:44.208Z,10.40
2022-09-07T00:50:31.571Z,10.30
2022-09-07T00:55:54.441Z,10.20
2022-09-07T01:01:17.385Z,10.10
2022-09-07T01:06:40.072Z,10.00
2022-09-07T01:12:03.133Z,10.00
2022-09-07T01:18:00.948Z,10.00
2022-09-07T01:23:34.376Z,9.90
2022-09-07T01:29:07.020Z,10.00
2022-09-07T01:34:29.454Z,10.00
2022-09-07T01:39:54.252Z,10.10
2022-09-07T01:45:19.867Z,10.20
2022-09-07T01:50:42.021Z,10.20
2022-09-07T01:56:21.144Z,10.20
2022-09-07T02:02:05.634Z,10.30
2022-09-07T02:07:37.140Z,10.20
2022-09-07T02:13:20.924Z,10.20
2022-09-07T02:18:47.676Z,10.20
2022-09-07T02:24:15.244Z,10.10
2022-09-07T02:29:38.163Z,10.00
2022-09-07T02:35:00.375Z,10.10
2022-09-07T02:40:22.659Z,10.00
2022-09-07T02:46:16.892Z,9.90
2022-09-07T02:52:18.973Z,9.80
2022-09-07T02:58:10.292Z,9.70
2022-09-07T03:03:45.802Z,9.60
2022-09-07T03:09:15.063Z,9.50
2022-09-07T03:14:40.260Z,9.30
2022-09-07T03:20:03.291Z,9.10
2022-09-07T03:25:25.433Z,9.10
2022-09-07T03:30:47.696Z,8.90
2022-09-07T03:36:09.860Z,8.70
2022-09-07T03:41:31.988Z,8.50
2022-09-07T03:46:54.102Z,8.50
2022-09-07T03:52:16.262Z,8.60
2022-09-07T03:57:40.344Z,8.40
2022-09-07T04:03:02.408Z,8.40
2022-09-07T04:08:32.582Z,8.30
2022-09-07T04:13:54.839Z,8.40
2022-09-07T04:19:17.743Z,8.20
2022-09-07T04:24:39.865Z,8.00
2022-09-07T04:30:01.990Z,8.00
2022-09-07T04:35:24.089Z,8.10
2022-09-07T04:40:46.224Z,8.30
2022-09-07T04:46:33.569Z,8.40
2022-09-07T04:51:55.738Z,8.50
2022-09-07T04:57:21.769Z,8.50
2022-09-07T05:02:43.959Z,8.80
2022-09-07T05:08:06.218Z,9.00
2022-09-07T05:13:30.309Z,9.10
2022-09-07T05:18:56.716Z,9.30
2022-09-07T05:24:19.091Z,9.60
2022-09-07T05:35:23.391Z,11.50
2022-09-07T05:40:45.538Z,11.50
2022-09-07T05:46:08.872Z,11.00
2022-09-07T05:51:31.075Z,11.20
2022-09-07T05:56:53.181Z,11.00
2022-09-07T06:02:15.964Z,10.70
2022-09-07T06:07:38.248Z,10.70
2022-09-07T06:13:00.364Z,10.60
2022-09-07T06:18:22.496Z,10.80
2022-09-07T06:23:45.666Z,11.00
2022-09-07T06:29:10.144Z,11.10
2022-09-07T06:34:32.348Z,11.00
2022-09-07T06:39:54.601Z,11.30
2022-09-07T06:45:16.990Z,11.50
2022-09-07T06:50:39.713Z,11.70
2022-09-07T06:56:06.596Z,11.80
2022-09-07T07:01:30.213Z,12.00
2022-09-07T07:06:52.653Z,12.20
2022-09-07T07:12:14.783Z,12.50
2022-09-07T07:17:36.919Z,12.70
2022-09-07T07:22:59.064Z,12.80
2022-09-07T07:34:08.511Z,13.20
2022-09-07T07:51:09.886Z,13.70
2022-09-07T07:56:34.092Z,13.90
2022-09-07T08:01:56.489Z,14.00
2022-09-07T08:07:19.496Z,14.30
2022-09-07T08:12:41.702Z,14.60
2022-09-07T08:18:03.844Z,14.80
2022-09-07T08:23:25.970Z,14.90
2022-09-07T08:28:48.516Z,15.40
2022-09-07T08:34:11.245Z,15.50
2022-09-07T08:39:33.484Z,15.80
2022-09-07T08:45:00.961Z,16.30
2022-09-07T08:50:49.176Z,16.20
2022-09-07T08:56:19.109Z,16.60
2022-09-07T09:02:26.239Z,17.00
2022-09-07T09:07:50.087Z,17.70
2022-09-07T09:13:26.700Z,17.60
2022-09-07T09:19:02.366Z,17.90
2022-09-07T09:24:32.669Z,18.70
2022-09-07T09:29:54.746Z,19.90
2022-09-07T09:35:34.456Z,22.90
2022-09-07T09:40:59.364Z,21.90
2022-09-07T09:46:34.001Z,21.50
2022-09-07T10:04:00.893Z,23.30
2022-09-07T10:09:32.732Z,22.80
2022-09-07T10:14:57.711Z,21.90
2022-09-07T10:20:22.783Z,21.60
2022-09-07T10:25:44.864Z,22.20
2022-09-07T10:31:31.482Z,22.00
2022-09-07T10:37:04.804Z,22.30
2022-09-07T10:42:33.661Z,21.80
2022-09-07T10:48:01.724Z,21.60
2022-09-07T10:54:29.410Z,21.10
2022-09-07T11:00:11.536Z,20.90
2022-09-07T11:05:39.582Z,20.60
2022-09-07T11:11:17.133Z,20.40
2022-09-07T11:16:51.598Z,20.60
2022-09-07T11:22:36.315Z,20.30
2022-09-07T11:28:03.441Z,20.30
2022-09-07T11:33:39.753Z,20.50
2022-09-07T11:39:13.011Z,20.80
2022-09-07T11:45:17.792Z,21.10
2022-09-07T11:50:46.753Z,21.80
2022-09-07T11:56:21.675Z,22.30
2022-09-07T12:02:05.177Z,22.30
2022-09-07T12:07:36.468Z,23.00
2022-09-07T12:13:36.200Z,23.20
2022-09-07T12:19:18.956Z,22.90
2022-09-07T12:24:48.524Z,23.00
2022-09-07T12:30:13.674Z,22.80
2022-09-07T12:35:42.782Z,23.20
2022-09-07T12:41:22.791Z,23.20
2022-09-07T12:46:48.286Z,23.20
2022-09-07T12:52:22.544Z,23.10
2022-09-07T12:58:06.781Z,23.70
2022-09-07T13:03:49.838Z,22.60
2022-09-07T13:09:24.105Z,22.50
2022-09-07T13:14:52.295Z,22.70
2022-09-07T13:20:21.400Z,22.90
2022-09-07T13:25:50.997Z,22.50
2022-09-07T13:31:52.928Z,22.20
2022-09-07T13:37:19.072Z,22.20
2022-09-07T13:42:44.127Z,22.20
2022-09-07T13:48:21.741Z,22.30
2022-09-07T13:53:56.166Z,21.90
2022-09-07T13:59:23.832Z,22.00
2022-09-07T14:04:54.832Z,21.70
2022-09-07T14:10:21.067Z,21.70
2022-09-07T14:15:47.383Z,21.60
2022-09-07T14:21:19.021Z,21.50
2022-09-07T14:26:47.796Z,21.80
2022-09-07T14:39:47.817Z,21.40
2022-09-07T14:45:18.345Z,21.30
2022-09-07T14:50:47.212Z,21.30
2022-09-07T14:56:10.734Z,21.30
2022-09-07T15:01:37.590Z,21.40
2022-09-07T15:07:30.754Z,21.30
2022-09-07T15:12:56.435Z,21.40
2022-09-07T15:18:44.969Z,21.20
2022-09-07T15:24:07.548Z,21.00
2022-09-07T15:29:30.520Z,21.10
2022-09-07T15:34:53.571Z,21.20
2022-09-07T15:40:22.744Z,21.00
2022-09-07T15:45:45.403Z,20.90
2022-09-07T16:14:02.015Z,20.50
2022-09-07T16:19:25.100Z,20.30
2022-09-07T16:24:48.095Z,20.00
2022-09-07T16:30:10.661Z,19.70
2022-09-07T16:35:33.037Z,19.40
2022-09-07T16:40:55.238Z,19.10
2022-09-07T16:46:20.889Z,19.20
2022-09-07T16:51:43.355Z,19.00
2022-09-07T16:57:05.584Z,18.80
2022-09-07T17:02:27.700Z,18.20
2022-09-07T17:07:49.828Z,18.20
2022-09-07T17:13:12.100Z,17.90
2022-09-07T17:24:19.462Z,17.40
2022-09-07T17:29:41.736Z,16.90
2022-09-07T17:35:04.064Z,16.40
2022-09-07T17:40:26.635Z,16.20
2022-09-07T17:45:48.829Z,15.80
2022-09-07T17:51:11.004Z,15.50
2022-09-07T17:56:34.033Z,15.40
2022-09-07T18:01:56.649Z,15.30
2022-09-07T18:07:18.810Z,15.10
2022-09-07T18:12:41.000Z,14.90
2022-09-07T18:18:03.118Z,14.70
2022-09-07T18:23:25.559Z,14.60
2022-09-07T18:29:18.914Z,14.60
2022-09-07T18:34:34.644Z,14.60
2022-09-07T18:39:57.023Z,14.40
2022-09-07T18:45:34.573Z,14.20
2022-09-07T18:50:56.736Z,14.10
2022-09-07T18:56:21.165Z,14.10
2022-09-07T19:01:43.915Z,13.90
2022-09-07T19:07:06.087Z,13.80
2022-09-07T19:12:28.162Z,13.70
2022-09-07T19:17:50.268Z,13.80
2022-09-07T19:23:12.362Z,13.80
2022-09-07T19:28:35.415Z,13.80
2022-09-07T19:33:59.136Z,13.70
2022-09-07T19:39:21.215Z,13.70
2022-09-07T19:44:43.580Z,13.90
2022-09-07T19:50:06.045Z,14.00
2022-09-07T19:55:28.203Z,14.20
2022-09-07T20:00:50.356Z,14.30
2022-09-07T20:06:17.276Z,14.40
2022-09-07T20:11:41.808Z,14.40
2022-09-07T20:17:07.684Z,14.60
2022-09-07T20:22:29.796Z,14.70
2022-09-07T20:27:51.877Z,14.70
2022-09-07T20:33:13.960Z,14.70
2022-09-07T20:38:44.693Z,14.80
2022-09-07T20:44:06.766Z,14.80
2022-09-07T20:49:28.864Z,14.60
2022-09-07T20:54:51.220Z,14.60
2022-09-07T21:00:13.464Z,14.80
2022-09-07T21:05:36.115Z,14.80
2022-09-07T21:10:58.219Z,14.70
2022-09-07T21:16:20.331Z,14.60
2022-09-07T21:21:43.341Z,14.60
2022-09-07T21:27:05.445Z,14.50
2022-09-07T21:32:27.507Z,14.30
2022-09-07T21:37:49.622Z,14.30
2022-09-07T21:43:11.715Z,14.20
2022-09-07T21:48:34.057Z,14.10
2022-09-07T21:54:00.371Z,14.00
2022-09-07T21:59:22.479Z,14.00
2022-09-07T22:04:44.588Z,14.00
2022-09-07T22:10:08.298Z,14.00
2022-09-07T22:15:33.625Z,14.00
2022-09-07T22:21:17.619Z,13.80
2022-09-07T22:26:39.738Z,13.60
2022-09-07T22:32:02.015Z,13.70
2022-09-07T22:37:24.196Z,13.50
2022-09-07T22:42:46.368Z,13.40
2022-09-07T22:48:08.520Z,13.40
2022-09-07T22:53:33.311Z,13.20
2022-09-07T22:58:58.508Z,13.10
2022-09-07T23:04:20.887Z,13.00
2022-09-07T23:09:43.050Z,12.80
2022-09-07T23:15:05.425Z,12.70
2022-09-07T23:20:27.752Z,12.50
2022-09-07T23:25:49.823Z,12.50
2022-09-07T23:31:12.196Z,12.50
2022-09-07T23:36:34.390Z,12.50
2022-09-07T23:41:56.688Z,12.50
2022-09-07T23:47:18.785Z,12.50
2022-09-07T23:52:41.315Z,12.20
2022-09-07T23:58:03.425Z,12.10
